Historyczne dane pomiarowe

Dodano dane terminowe – wersja testowa.

Dane z okresu 1951-2018

Wersja bazy: 1.27 [2018-11-28, lista zmian], aktualizacja planowana na 2018-12-07

Dane meteo z obszaru Polski uzyskane na podstawie danych udostępnionych przez Instytut Meteorologii i Gospodarki Wodnej – Państwowy Instytut Badawczy.

 

Wybierz Datę:    

       

TemperaturaWilgotnośćWiatrCiśnienieOpadyŚniegCzas trwania zjawisk
 Stacja t tx tn tng RH VA  wxwx mslp ppp RRR   cm mm wxwxwxwxwxwxwx
2015-11-08 11.6 16.1 7.8 2.4-- 3.3 4.0---- 0.0------------
2015-11-09 11.0 15.7 5.0 1.5-- 5.7 3.7---- 2.8------------
2015-11-10 12.7 15.1 10.8 6.9-- 6.3 6.0---- 0.9------------
2015-11-11 13.7 14.9 12.8 8.7-- 6.0 2.0---- 0.3------------
2015-11-12 11.0 13.5 9.6 6.3-- 6.0 2.7---- 0.0------------
2015-11-13 9.2 12.9 4.6 -0.6-- 6.7 3.0---- 4.3------------
2015-11-14 7.9 12.1 5.7 1.4-- 5.3 7.0---- 0.6------------
2015-11-15 6.9 8.3 5.3 2.5-- 7.0 0.7---- 13.4------------
2015-11-16 8.2 10.5 5.5 3.0-- 6.0 1.3---- 2.9------------
2015-11-17 10.7 12.3 9.0 4.9-- 6.7 2.0---- 3.6------------
2015-11-18 11.0 13.1 8.8 7.5-- 7.0 7.0---- 6.7------------
2015-11-19 10.7 13.1 8.8 5.3-- 5.0 6.0---- 1.2------------
2015-11-20 7.6 11.1 5.8 5.5-- 6.7 2.7---- 3.9------------
2015-11-21 3.9 7.1 1.5 1.0-- 7.0 1.3---- 0.5------------
2015-11-22 1.4 3.2 -0.1 -4.4-- 7.0 0.7---- 0.0------------
2015-11-23 -1.2 1.5 -3.7 -7.3-- 4.3 0.7---- 0.0------------
2015-11-24 0.5 4.1 -1.7 -5.7-- 4.3 2.0---- 0.0------------
2015-11-25 0.6 2.4 -1.5 -3.7-- 7.0 1.7---- 0.5------------
2015-11-26 3.7 6.1 1.8 -1.8-- 6.3 0.0---- 0.0------------
2015-11-27 2.3 6.3 -0.4 -3.0-- 4.3 0.0---- 0.0------------
2015-11-28 0.3 3.4 -3.5 -7.6-- 5.3 2.0---- 2.1------------
2015-11-29 3.7 6.1 0.7 -1.6-- 7.7 4.3---- 8.7------------
2015-11-30 6.1 8.3 3.8 -0.5-- 7.0 10.3---- 4.7------------
2015-12-01 4.3 6.9 2.4 2.3-- 5.7 7.3---- 1.1------------
2015-12-02 6.6 10.1 3.6 2.0-- 7.0 2.0---- 2.6------------
2015-12-03 7.3 10.4 5.8 2.5-- 4.0 0.7---- 0.0------------
2015-12-04 6.0 9.3 3.0 0.0-- 6.7 5.0---- 0.3------------
2015-12-05 6.3 9.3 3.5 1.3-- 4.0 3.3---- 0.2------------
2015-12-06 8.8 11.3 6.7 5.1-- 4.0 6.7---- 0.0------------
2015-12-07 9.8 11.3 8.7 8.3-- 5.7 1.3---- 0.9------------
1108.8 ms

 

Źródłem pochodzenia danych jest Instytut Meteorologii i Gospodarki Wodnej – Państwowy Instytut Badawczy. Dane Instytutu Meteorologii i Gospodarki Wodnej – Państwowego Instytutu Badawczego zostały przetworzone.

Dane źródłowe można odnaleźć na stronie https://dane.imgw.pl